s'Arenal, Spain
Current Conditions -  °F | °C
As of 11:30 PM on Sunday 23 Nov 2014 (Local Time) from LEPA Reporting Station
Clear Clear  
Wind Chill: 66°   Ceiling: Unl
Heat Index: 66°   Visibility: 6mi
Dew Point: 57°   Wind: 10mph
Humidity: 73%   Direction: 130°SE
Pressure: 30"   Gusts: NA
Location:  39.5°N, 2.75°E
Report Text: LEPA 232230Z 13009KT CAVOK 19/14 Q1016 NOSIG
Loading
Personal Weather Stations






























Interactive Weather Map New forecast layout! Learn more

10-Day Weather Forecast

Advertisements
Track Severe Weather on mobile